Time;durP1;ratioP1;P1;durP2;ratioP2;P2;SDS_P1;SDS_P2;PMS_P1;PMS_P2;Temp;Humidity;BMP_temperature;BMP_pressure;BME280_temperature;BME280_humidity;BME280_pressure;Samples;Min_cycle;Max_cycle;Signal;HPM_P1;HPM_P2
2021/10/10 00:01:15;;;;;;;22.33;16.13;;;9.50;99.90;;;;;;5053962;28;20440;-88
2021/10/10 00:03:42;;;;;;;20.77;16.23;;;9.40;99.90;;;;;;5046244;28;20484;-89
2021/10/10 00:06:09;;;;;;;18.70;15.50;;;9.40;99.90;;;;;;5050802;28;20452;-89
2021/10/10 00:08:36;;;;;;;21.97;16.77;;;9.40;99.90;;;;;;5043482;28;20496;-88
2021/10/10 00:11:04;;;;;;;21.77;16.83;;;9.40;99.90;;;;;;5035836;28;20438;-87
2021/10/10 00:13:31;;;;;;;21.03;15.77;;;9.40;99.90;;;;;;5039103;28;20528;-88
2021/10/10 00:15:58;;;;;;;21.73;16.77;;;9.40;99.90;;;;;;5040351;28;20457;-88
2021/10/10 00:18:26;;;;;;;19.50;15.60;;;9.30;99.90;;;;;;5034559;28;20453;-88
2021/10/10 00:20:53;;;;;;;18.67;16.67;;;9.30;99.90;;;;;;5034308;28;20457;-88
2021/10/10 00:23:19;;;;;;;25.10;16.57;;;9.30;99.90;;;;;;5052846;28;20477;-88
2021/10/10 00:25:46;;;;;;;20.83;17.63;;;9.20;99.90;;;;;;5054423;28;20455;-88
2021/10/10 00:28:14;;;;;;;21.90;19.70;;;9.20;99.90;;;;;;5052299;28;20449;-89
2021/10/10 00:30:41;;;;;;;17.63;15.83;;;9.20;99.90;;;;;;5036946;28;20449;-88
2021/10/10 00:33:08;;;;;;;20.00;17.03;;;9.10;99.90;;;;;;5035718;28;20678;-88
2021/10/10 00:35:35;;;;;;;19.30;16.80;;;9.10;99.90;;;;;;5034214;28;20446;-87
2021/10/10 00:38:02;;;;;;;18.43;16.10;;;9.00;99.90;;;;;;5034242;28;20468;-87
2021/10/10 00:40:29;;;;;;;24.60;18.33;;;8.90;99.90;;;;;;5035356;28;20472;-88
2021/10/10 00:42:55;;;;;;;18.63;16.73;;;8.90;99.90;;;;;;5037348;28;20477;-88
2021/10/10 00:45:23;;;;;;;19.43;17.13;;;8.90;99.90;;;;;;5039016;28;20950;-88
2021/10/10 00:47:50;;;;;;;19.17;16.90;;;8.90;99.90;;;;;;5037745;28;20464;-89
2021/10/10 00:50:17;;;;;;;22.07;17.40;;;9.00;99.90;;;;;;5036989;28;20481;-89
2021/10/10 00:52:45;;;;;;;19.17;17.00;;;9.00;99.90;;;;;;5036367;28;20454;-88
2021/10/10 00:55:13;;;;;;;20.30;18.00;;;9.00;99.90;;;;;;5036736;28;20799;-88
2021/10/10 00:57:44;;;;;;;20.60;16.37;;;9.10;99.90;;;;;;5038321;28;20445;-87
2021/10/10 01:00:12;;;;;;;20.83;16.50;;;9.00;99.90;;;;;;5044256;28;20437;-88
2021/10/10 01:02:41;;;;;;;17.77;16.07;;;8.90;99.90;;;;;;5045806;28;20469;-87
2021/10/10 01:05:08;;;;;;;19.87;15.60;;;8.80;99.90;;;;;;5043719;28;20531;-88
2021/10/10 01:07:35;;;;;;;22.10;17.20;;;8.70;99.90;;;;;;5050873;28;20433;-88
2021/10/10 01:10:02;;;;;;;23.80;17.40;;;8.70;99.90;;;;;;5044136;28;20440;-88
2021/10/10 01:12:29;;;;;;;21.10;16.47;;;8.70;99.90;;;;;;5042442;28;20489;-88
2021/10/10 01:14:57;;;;;;;21.40;18.63;;;8.60;99.90;;;;;;5049471;28;20449;-88
2021/10/10 01:17:25;;;;;;;21.20;16.80;;;8.40;99.90;;;;;;5048260;28;20472;-88
2021/10/10 01:19:55;;;;;;;19.07;17.10;;;8.40;99.90;;;;;;5051494;28;20441;-88
2021/10/10 01:22:24;;;;;;;19.37;17.10;;;8.30;99.90;;;;;;5056343;28;20457;-87
2021/10/10 01:24:52;;;;;;;19.70;16.37;;;8.40;99.90;;;;;;5045814;28;20961;-88
2021/10/10 01:27:19;;;;;;;19.63;16.47;;;8.40;99.90;;;;;;5051751;28;20445;-88
2021/10/10 01:29:46;;;;;;;18.90;16.90;;;8.30;99.90;;;;;;5058735;28;20431;-87
2021/10/10 01:32:13;;;;;;;22.17;16.73;;;8.30;99.90;;;;;;5060323;28;20469;-88
2021/10/10 01:34:44;;;;;;;19.23;16.00;;;8.30;99.90;;;;;;5060598;28;20443;-87
2021/10/10 01:37:11;;;;;;;19.53;16.70;;;8.20;99.90;;;;;;5059768;28;20444;-88
2021/10/10 01:39:39;;;;;;;20.07;17.97;;;8.30;99.90;;;;;;5044137;28;20445;-88
2021/10/10 01:42:06;;;;;;;21.53;18.00;;;8.30;99.90;;;;;;5040451;28;20472;-88
2021/10/10 01:44:33;;;;;;;18.53;16.70;;;8.20;99.90;;;;;;5039719;28;20489;-88
2021/10/10 01:47:00;;;;;;;19.43;16.90;;;8.30;99.90;;;;;;5044754;28;20513;-87
2021/10/10 01:49:27;;;;;;;20.23;17.90;;;8.20;99.90;;;;;;5048186;28;20934;-88
2021/10/10 01:51:53;;;;;;;21.40;18.17;;;8.20;99.90;;;;;;5039282;28;20441;-88
2021/10/10 01:54:20;;;;;;;19.00;17.00;;;8.20;99.90;;;;;;5037391;28;20476;-89
2021/10/10 01:56:48;;;;;;;22.30;17.10;;;8.10;99.90;;;;;;5040338;28;20973;-88
2021/10/10 01:59:15;;;;;;;17.30;15.17;;;8.20;99.90;;;;;;5036893;28;20437;-88
2021/10/10 02:01:42;;;;;;;17.40;15.10;;;8.10;99.90;;;;;;5038847;28;20442;-88
2021/10/10 02:04:09;;;;;;;25.73;17.77;;;8.10;99.90;;;;;;5038306;28;20487;-88
2021/10/10 02:06:36;;;;;;;19.83;14.67;;;8.10;99.90;;;;;;5046928;28;20456;-88
2021/10/10 02:09:02;;;;;;;21.17;16.80;;;8.10;99.90;;;;;;5059889;28;20443;-87
2021/10/10 02:11:29;;;;;;;17.23;15.07;;;8.20;99.90;;;;;;5051245;28;20980;-88
2021/10/10 02:13:57;;;;;;;19.00;15.90;;;8.10;99.90;;;;;;5036294;28;20467;-88
2021/10/10 02:16:24;;;;;;;20.37;17.03;;;8.10;99.90;;;;;;5036298;28;20442;-86
2021/10/10 02:18:53;;;;;;;17.67;15.83;;;8.10;99.90;;;;;;5037879;28;20834;-87
2021/10/10 02:21:20;;;;;;;20.00;15.73;;;8.10;99.90;;;;;;5054927;28;20449;-87
2021/10/10 02:23:46;;;;;;;18.40;16.00;;;8.00;99.90;;;;;;5056385;28;20480;-87
2021/10/10 02:26:13;;;;;;;19.13;14.80;;;7.90;99.90;;;;;;5056128;28;20441;-86
2021/10/10 02:28:40;;;;;;;20.00;16.53;;;7.80;99.90;;;;;;5056287;28;20429;-87
2021/10/10 02:31:08;;;;;;;20.87;16.37;;;7.70;99.90;;;;;;5056629;28;20457;-87
2021/10/10 02:33:35;;;;;;;16.93;15.33;;;7.70;99.90;;;;;;5054529;28;20484;-87
2021/10/10 02:36:01;;;;;;;20.53;15.77;;;7.70;99.90;;;;;;5050248;28;20452;-87
2021/10/10 02:38:28;;;;;;;17.40;15.23;;;7.70;99.90;;;;;;5037620;28;20456;-87
2021/10/10 02:40:55;;;;;;;18.10;15.23;;;7.60;99.90;;;;;;5036624;28;20449;-87
2021/10/10 02:43:22;;;;;;;18.17;16.17;;;7.60;99.90;;;;;;5035894;28;20488;-87
2021/10/10 02:45:49;;;;;;;20.30;17.67;;;7.60;99.90;;;;;;5035764;28;20481;-87
2021/10/10 02:48:17;;;;;;;15.97;14.27;;;7.60;99.90;;;;;;5036100;28;20484;-86
2021/10/10 02:50:44;;;;;;;16.47;14.83;;;7.50;99.90;;;;;;5037832;28;20798;-87
2021/10/10 02:53:11;;;;;;;16.53;14.50;;;7.50;99.90;;;;;;5054235;28;20469;-87
2021/10/10 02:55:38;;;;;;;18.23;15.53;;;7.50;99.90;;;;;;5037898;28;20485;-86
2021/10/10 02:58:04;;;;;;;17.23;14.40;;;7.40;99.90;;;;;;5035900;28;20544;-86
2021/10/10 03:00:31;;;;;;;20.60;15.57;;;7.30;99.90;;;;;;5035836;28;20938;-87
2021/10/10 03:02:58;;;;;;;18.93;15.43;;;7.40;99.90;;;;;;5042678;28;20468;-87
2021/10/10 03:05:26;;;;;;;19.73;16.03;;;7.40;99.90;;;;;;5036440;28;20500;-87
2021/10/10 03:07:53;;;;;;;19.83;16.37;;;7.50;99.90;;;;;;5035924;28;20457;-85
2021/10/10 03:10:20;;;;;;;16.30;14.80;;;7.50;99.90;;;;;;5035637;28;20817;-85
2021/10/10 03:12:46;;;;;;;23.53;15.77;;;7.40;99.90;;;;;;5035177;28;20453;-85
2021/10/10 03:15:13;;;;;;;17.83;15.30;;;7.40;99.90;;;;;;5034891;28;20449;-85
2021/10/10 03:17:40;;;;;;;16.67;14.73;;;7.30;99.90;;;;;;5034902;28;20515;-86
2021/10/10 03:20:08;;;;;;;18.37;15.87;;;7.30;99.90;;;;;;5034727;28;20449;-88
2021/10/10 03:22:36;;;;;;;19.63;15.10;;;7.20;99.90;;;;;;5035135;28;20457;-88
2021/10/10 03:25:03;;;;;;;16.17;14.47;;;7.20;99.90;;;;;;5034250;28;20484;-88
2021/10/10 03:27:30;;;;;;;17.47;15.67;;;7.20;99.90;;;;;;5035094;28;20449;-88
2021/10/10 03:29:57;;;;;;;20.50;16.10;;;7.20;99.90;;;;;;5034931;28;20455;-88
2021/10/10 03:32:24;;;;;;;19.27;15.53;;;7.10;99.90;;;;;;5034201;28;20469;-88
2021/10/10 03:34:51;;;;;;;18.40;16.40;;;7.20;99.90;;;;;;5033974;28;20895;-88
2021/10/10 03:37:18;;;;;;;21.10;17.73;;;7.20;99.90;;;;;;5038360;28;20450;-88
2021/10/10 03:39:46;;;;;;;20.27;16.63;;;7.10;99.90;;;;;;5038903;28;20453;-88
2021/10/10 03:42:13;;;;;;;19.93;15.70;;;7.10;99.90;;;;;;5034826;28;20474;-88
2021/10/10 03:44:39;;;;;;;18.23;16.37;;;6.90;99.90;;;;;;5034609;28;20485;-89
2021/10/10 03:47:06;;;;;;;18.07;16.10;;;6.90;99.90;;;;;;5033898;28;20524;-88
2021/10/10 03:49:33;;;;;;;19.50;16.53;;;6.90;99.90;;;;;;5034060;28;20444;-88
2021/10/10 03:52:00;;;;;;;19.03;16.13;;;6.90;99.90;;;;;;5034707;28;20457;-88
2021/10/10 03:57:22;;;;;;;17.27;15.50;;;6.90;99.90;;;;;;5063762;22;20511;-90
2021/10/10 03:59:52;;;;;;;18.73;14.80;;;7.00;99.90;;;;;;5054124;28;20440;-90
2021/10/10 04:02:19;;;;;;;17.53;15.43;;;6.90;99.90;;;;;;5054196;28;20436;-90
2021/10/10 04:04:46;;;;;;;21.23;16.17;;;6.90;99.90;;;;;;5053844;28;20491;-90
2021/10/10 04:07:12;;;;;;;16.77;14.73;;;6.90;99.90;;;;;;5053302;28;20468;-90
2021/10/10 04:09:39;;;;;;;16.30;14.17;;;7.00;99.90;;;;;;5054093;28;20444;-90
2021/10/10 04:12:06;;;;;;;19.90;15.67;;;7.00;99.90;;;;;;5058191;28;20478;-90
2021/10/10 04:14:34;;;;;;;21.17;16.87;;;6.90;99.90;;;;;;5075510;28;20436;-91
2021/10/10 04:17:01;;;;;;;17.77;14.43;;;6.90;99.90;;;;;;5067098;28;20463;-90
2021/10/10 04:19:27;;;;;;;18.27;16.00;;;6.90;99.90;;;;;;5053556;28;20433;-90
2021/10/10 04:21:54;;;;;;;19.83;17.70;;;6.80;99.90;;;;;;5054035;28;20455;-90
2021/10/10 04:24:22;;;;;;;19.70;17.00;;;6.80;99.90;;;;;;5053692;28;20455;-90
2021/10/10 04:26:48;;;;;;;19.63;16.37;;;6.70;99.90;;;;;;5053670;28;21004;-90
2021/10/10 04:29:15;;;;;;;16.73;15.03;;;6.70;99.90;;;;;;5053937;28;20819;-90
2021/10/10 04:31:43;;;;;;;17.07;15.23;;;6.70;99.90;;;;;;5054215;28;20455;-90
2021/10/10 04:34:11;;;;;;;17.53;15.73;;;6.70;99.90;;;;;;5077875;28;20511;-91
2021/10/10 04:36:38;;;;;;;18.30;16.27;;;6.70;99.90;;;;;;5076720;28;20441;-92
2021/10/10 04:39:05;;;;;;;19.07;16.13;;;6.70;99.90;;;;;;5076421;28;20448;-91
2021/10/10 04:41:32;;;;;;;18.33;16.33;;;6.70;99.90;;;;;;5059375;28;20436;-90
2021/10/10 04:43:59;;;;;;;19.67;14.70;;;6.70;99.90;;;;;;5076514;28;20441;-89
2021/10/10 04:46:26;;;;;;;20.37;15.23;;;6.70;99.90;;;;;;5072841;28;20492;-90
2021/10/10 04:48:54;;;;;;;21.50;16.90;;;6.70;99.90;;;;;;5072053;28;20495;-91
2021/10/10 04:51:21;;;;;;;19.10;15.90;;;6.70;99.90;;;;;;5059326;28;20452;-90
2021/10/10 04:53:48;;;;;;;20.63;15.83;;;6.70;99.90;;;;;;5055610;28;20456;-91
2021/10/10 04:56:14;;;;;;;16.07;14.27;;;6.70;99.90;;;;;;5054238;28;20452;-90
2021/10/10 04:58:41;;;;;;;22.23;15.23;;;6.70;99.90;;;;;;5067022;28;20434;-90
2021/10/10 05:01:08;;;;;;;17.87;13.87;;;6.70;99.90;;;;;;5058994;28;20463;-90
2021/10/10 05:03:35;;;;;;;16.70;15.00;;;6.60;99.90;;;;;;5054591;28;20441;-90
2021/10/10 05:06:03;;;;;;;21.40;15.73;;;6.60;99.90;;;;;;5053747;28;20483;-90
2021/10/10 05:08:30;;;;;;;15.90;13.97;;;6.60;99.90;;;;;;5054147;28;20524;-90
2021/10/10 05:10:57;;;;;;;21.60;14.97;;;6.60;99.90;;;;;;5054181;28;20478;-90
2021/10/10 05:13:24;;;;;;;16.47;14.40;;;6.60;99.90;;;;;;5060331;28;20480;-90
2021/10/10 05:15:51;;;;;;;14.90;13.40;;;6.60;99.90;;;;;;5071257;28;20760;-90
2021/10/10 05:18:18;;;;;;;20.43;14.47;;;6.50;99.90;;;;;;5055217;28;20472;-90
2021/10/10 05:20:45;;;;;;;16.33;14.43;;;6.50;99.90;;;;;;5053635;28;20898;-90
2021/10/10 05:23:15;;;;;;;16.20;14.60;;;6.50;99.90;;;;;;5053042;28;20433;-90
2021/10/10 05:25:41;;;;;;;16.40;14.67;;;6.40;99.90;;;;;;5052851;28;20482;-90
2021/10/10 05:28:08;;;;;;;19.03;14.53;;;6.40;99.90;;;;;;5053531;28;21014;-90
2021/10/10 05:30:35;;;;;;;15.37;13.63;;;6.40;99.90;;;;;;5054115;28;20452;-90
2021/10/10 05:33:02;;;;;;;16.30;14.53;;;6.40;99.90;;;;;;5052895;28;20459;-91
2021/10/10 05:35:28;;;;;;;16.20;14.50;;;6.40;99.90;;;;;;5052936;28;20842;-90
2021/10/10 05:37:56;;;;;;;17.83;14.20;;;6.30;99.90;;;;;;5059658;28;20488;-90
2021/10/10 05:40:25;;;;;;;16.80;14.33;;;6.30;99.90;;;;;;5054551;28;20458;-90
2021/10/10 05:42:51;;;;;;;18.50;13.73;;;6.30;99.90;;;;;;5075327;28;20504;-90
2021/10/10 05:45:19;;;;;;;19.53;14.07;;;6.20;99.90;;;;;;5074572;28;20483;-90
2021/10/10 05:47:45;;;;;;;19.07;15.03;;;6.10;99.90;;;;;;5054842;28;20460;-90
2021/10/10 05:50:12;;;;;;;23.47;15.23;;;6.10;99.90;;;;;;5056238;28;20455;-90
2021/10/10 05:52:39;;;;;;;17.10;14.43;;;6.20;99.90;;;;;;5056086;28;20444;-90
2021/10/10 05:55:09;;;;;;;16.37;14.63;;;6.30;99.90;;;;;;5056866;28;20828;-90
2021/10/10 05:57:44;;;;;;;18.87;14.63;;;6.20;99.90;;;;;;5058174;28;20491;-90
2021/10/10 06:00:12;;;;;;;16.43;14.23;;;6.30;99.90;;;;;;5075524;28;20429;-91
2021/10/10 06:02:39;;;;;;;18.00;14.97;;;6.40;99.90;;;;;;5069770;28;20430;-92
2021/10/10 06:05:06;;;;;;;16.37;13.73;;;6.30;99.90;;;;;;5061374;28;20602;-91
2021/10/10 06:07:33;;;;;;;16.37;14.67;;;6.30;99.90;;;;;;5058940;28;20851;-91
2021/10/10 06:10:00;;;;;;;19.40;14.40;;;6.30;99.90;;;;;;5057221;28;20504;-91
2021/10/10 06:12:27;;;;;;;16.60;13.73;;;6.30;99.90;;;;;;5056226;28;20451;-91
2021/10/10 06:14:55;;;;;;;15.83;14.13;;;6.30;99.90;;;;;;5058013;28;20467;-91
2021/10/10 06:17:22;;;;;;;17.63;15.33;;;6.40;99.90;;;;;;5059795;28;20460;-90
2021/10/10 06:19:49;;;;;;;15.70;13.80;;;6.50;99.90;;;;;;5058233;28;20829;-92
2021/10/10 06:22:16;;;;;;;19.20;13.80;;;6.50;99.90;;;;;;5058405;28;20448;-90
2021/10/10 06:24:43;;;;;;;16.67;13.70;;;6.50;99.90;;;;;;5070890;28;20419;-90
2021/10/10 06:27:10;;;;;;;16.10;13.63;;;6.50;99.90;;;;;;5074071;28;20464;-89
2021/10/10 06:29:37;;;;;;;18.33;13.30;;;6.60;99.90;;;;;;5078362;28;20512;-91
2021/10/10 06:32:05;;;;;;;15.23;13.63;;;6.60;99.90;;;;;;5075114;28;20433;-91
2021/10/10 06:34:32;;;;;;;16.70;15.00;;;6.60;99.90;;;;;;5063291;28;20449;-91
2021/10/10 06:37:00;;;;;;;16.30;14.07;;;6.60;99.90;;;;;;5060543;28;20499;-89
2021/10/10 06:39:27;;;;;;;19.17;14.93;;;6.60;99.90;;;;;;5059467;28;20452;-90
2021/10/10 06:41:54;;;;;;;15.37;13.77;;;6.70;99.90;;;;;;5059510;28;20937;-90
2021/10/10 06:44:20;;;;;;;17.40;14.07;;;6.70;99.90;;;;;;5058041;28;20826;-90
2021/10/10 06:46:47;;;;;;;14.63;13.10;;;6.70;99.90;;;;;;5060427;28;20487;-90
2021/10/10 06:49:16;;;;;;;17.67;14.93;;;6.80;99.90;;;;;;5059622;28;20450;-91
2021/10/10 06:51:43;;;;;;;16.37;14.50;;;6.80;99.90;;;;;;5078041;28;20436;-91
2021/10/10 06:54:09;;;;;;;16.80;13.67;;;6.70;99.90;;;;;;5070382;28;20458;-91
2021/10/10 06:56:36;;;;;;;16.13;14.43;;;6.70;99.90;;;;;;5061052;28;20476;-90
2021/10/10 06:59:03;;;;;;;16.90;14.63;;;6.80;99.90;;;;;;5060720;28;20456;-91
2021/10/10 07:01:30;;;;;;;18.53;15.47;;;6.90;99.90;;;;;;5064612;28;20925;-90
2021/10/10 07:04:00;;;;;;;18.50;15.77;;;6.90;99.90;;;;;;5061077;28;20447;-91
2021/10/10 07:06:32;;;;;;;21.57;17.00;;;7.00;99.90;;;;;;5058864;28;20491;-90
2021/10/10 07:09:11;;;;;;;17.03;15.03;;;7.00;99.90;;;;;;5063388;28;20539;-91
2021/10/10 07:11:41;;;;;;;18.30;16.00;;;7.00;99.90;;;;;;5062636;28;20460;-90
2021/10/10 07:14:08;;;;;;;19.37;15.73;;;7.10;99.90;;;;;;5061306;28;20468;-90
2021/10/10 07:16:44;;;;;;;21.07;15.20;;;7.00;99.90;;;;;;5065564;28;20480;-91
2021/10/10 07:19:23;;;;;;;18.27;15.10;;;7.00;99.90;;;;;;5074700;28;20428;-91
2021/10/10 07:21:59;;;;;;;18.30;16.40;;;7.00;99.90;;;;;;5094032;28;20470;-91
2021/10/10 07:27:13;;;;;;;18.07;14.70;;;7.30;99.90;;;;;;5071646;28;20510;-91
2021/10/10 07:29:40;;;;;;;20.47;16.60;;;7.40;99.90;;;;;;5073904;28;20444;-91
2021/10/10 07:32:07;;;;;;;17.63;15.73;;;7.50;99.90;;;;;;5069043;28;20480;-90
2021/10/10 07:34:34;;;;;;;18.23;15.30;;;7.60;99.90;;;;;;5078482;28;20449;-91
2021/10/10 07:37:02;;;;;;;16.80;15.30;;;7.60;99.90;;;;;;5069427;28;20472;-91
2021/10/10 07:39:32;;;;;;;18.80;17.00;;;7.70;99.90;;;;;;5062245;28;20452;-91
2021/10/10 07:42:00;;;;;;;18.80;16.73;;;7.80;99.90;;;;;;5065824;28;20429;-91
2021/10/10 07:44:30;;;;;;;19.80;15.90;;;7.90;99.90;;;;;;5055291;28;20456;-90
2021/10/10 07:47:07;;;;;;;19.63;17.57;;;8.00;99.90;;;;;;5055520;28;20566;-90
2021/10/10 07:49:39;;;;;;;18.20;16.27;;;8.00;99.90;;;;;;5057756;28;20456;-91
2021/10/10 07:52:14;;;;;;;19.07;16.90;;;7.90;99.90;;;;;;5059383;28;20423;-90
2021/10/10 07:54:41;;;;;;;19.20;16.40;;;8.00;99.90;;;;;;5057522;28;20436;-90
2021/10/10 07:57:11;;;;;;;21.30;17.23;;;7.90;99.90;;;;;;5055756;28;20480;-90
2021/10/10 07:59:37;;;;;;;20.00;16.83;;;8.00;99.90;;;;;;5056668;28;20444;-90
2021/10/10 08:02:04;;;;;;;19.50;16.77;;;8.40;99.90;;;;;;5055283;28;20925;-91
2021/10/10 08:04:31;;;;;;;18.07;16.20;;;9.00;99.90;;;;;;5056102;28;20452;-90
2021/10/10 08:06:58;;;;;;;18.07;14.73;;;9.30;99.90;;;;;;5060198;28;20986;-90
2021/10/10 08:09:29;;;;;;;19.90;17.83;;;9.50;99.90;;;;;;5074922;28;20463;-90
2021/10/10 08:11:56;;;;;;;17.80;15.90;;;9.50;99.90;;;;;;5070032;28;20476;-91
2021/10/10 08:14:22;;;;;;;16.83;15.13;;;9.40;99.90;;;;;;5074550;28;20448;-90
2021/10/10 08:16:49;;;;;;;20.20;16.93;;;9.60;99.90;;;;;;5077553;28;20452;-90
2021/10/10 08:19:17;;;;;;;18.40;16.70;;;9.50;99.90;;;;;;5076751;28;20471;-91
2021/10/10 08:21:44;;;;;;;18.37;15.90;;;9.50;99.90;;;;;;5062751;28;20814;-91
2021/10/10 08:24:12;;;;;;;18.93;16.93;;;9.60;99.90;;;;;;5065573;28;20441;-89
2021/10/10 08:26:40;;;;;;;20.87;16.27;;;9.60;99.90;;;;;;5064612;28;20487;-91
2021/10/10 08:29:07;;;;;;;18.63;16.57;;;9.70;99.90;;;;;;5074972;28;20443;-89
2021/10/10 08:31:34;;;;;;;18.80;16.73;;;10.00;99.90;;;;;;5066469;28;20446;-91
2021/10/10 08:34:01;;;;;;;20.27;16.20;;;10.10;99.90;;;;;;5063609;28;20432;-90
2021/10/10 08:36:50;;;;;;;21.73;17.53;;;10.20;99.90;;;;;;5067575;28;20457;-90
2021/10/10 08:39:22;;;;;;;19.60;15.80;;;10.20;99.90;;;;;;5077047;28;20431;-93
2021/10/10 08:41:54;;;;;;;18.40;16.17;;;10.30;99.90;;;;;;5067041;28;20531;-90
2021/10/10 08:44:27;;;;;;;24.97;16.47;;;10.40;99.90;;;;;;5058311;28;20805;-89
2021/10/10 08:47:01;;;;;;;17.40;15.67;;;10.60;99.90;;;;;;5059106;28;20512;-89
2021/10/10 08:49:28;;;;;;;18.70;15.27;;;10.60;99.90;;;;;;5057363;28;20452;-89
2021/10/10 08:51:54;;;;;;;19.30;16.83;;;10.70;99.90;;;;;;5057414;28;21068;-90
2021/10/10 08:54:21;;;;;;;19.43;16.00;;;10.80;99.90;;;;;;5057238;28;20452;-90
2021/10/10 08:56:50;;;;;;;19.67;17.37;;;10.90;99.90;;;;;;5058054;28;20482;-89
2021/10/10 08:59:19;;;;;;;20.53;18.13;;;11.10;99.90;;;;;;5056745;28;20447;-87
2021/10/10 09:01:47;;;;;;;19.70;17.27;;;11.00;99.90;;;;;;5056818;28;20980;-88
2021/10/10 09:04:14;;;;;;;21.60;16.83;;;10.80;99.90;;;;;;5055729;28;20840;-87
2021/10/10 09:06:41;;;;;;;18.60;16.63;;;11.10;99.90;;;;;;5056516;28;20488;-88
2021/10/10 09:09:28;;;;;;;18.57;16.57;;;11.30;99.90;;;;;;5056344;28;20456;-87
2021/10/10 09:12:01;;;;;;;18.53;16.53;;;11.50;99.90;;;;;;5059055;28;20456;-89
2021/10/10 09:14:28;;;;;;;20.60;17.47;;;11.60;99.90;;;;;;5058700;28;20831;-88
2021/10/10 09:17:10;;;;;;;20.67;16.90;;;11.80;99.90;;;;;;5052831;28;20461;-89
2021/10/10 09:19:38;;;;;;;17.07;15.27;;;12.00;99.90;;;;;;5056182;28;20453;-89
2021/10/10 09:22:07;;;;;;;23.10;18.20;;;12.10;99.90;;;;;;5055159;28;20449;-90
2021/10/10 09:24:34;;;;;;;23.07;16.73;;;11.90;99.90;;;;;;5055644;28;20425;-89
2021/10/10 09:27:05;;;;;;;17.67;15.87;;;12.00;99.90;;;;;;5075024;28;20487;-90
2021/10/10 09:29:35;;;;;;;16.90;15.20;;;11.80;99.90;;;;;;5060709;28;21002;-88
2021/10/10 09:32:08;;;;;;;20.97;17.10;;;11.90;99.90;;;;;;5056620;28;20567;-88
2021/10/10 09:34:36;;;;;;;20.97;16.57;;;12.00;99.90;;;;;;5060971;28;20437;-85
2021/10/10 09:37:12;;;;;;;22.50;16.83;;;12.10;99.90;;;;;;5055097;28;20466;-87
2021/10/10 09:39:43;;;;;;;19.77;16.50;;;12.40;99.90;;;;;;5057485;28;20448;-86
2021/10/10 09:42:11;;;;;;;21.40;17.13;;;12.60;98.80;;;;;;5057639;28;20491;-87
2021/10/10 09:44:50;;;;;;;24.83;18.20;;;12.80;98.30;;;;;;5056017;28;21183;-89
2021/10/10 09:47:18;;;;;;;19.77;17.47;;;13.00;98.30;;;;;;5055584;28;20851;-88
2021/10/10 09:49:45;;;;;;;18.73;16.57;;;14.20;97.80;;;;;;5061471;28;20473;-88
2021/10/10 09:52:14;;;;;;;18.23;15.60;;;16.70;94.00;;;;;;5077201;28;20439;-85
2021/10/10 09:54:52;;;;;;;15.87;14.27;;;18.70;86.20;;;;;;5074145;28;20447;-88
2021/10/10 09:57:21;;;;;;;19.20;15.03;;;21.20;77.50;;;;;;5065655;28;20464;-88
2021/10/10 09:59:48;;;;;;;16.70;15.10;;;23.60;66.20;;;;;;5054072;28;20961;-88
2021/10/10 10:02:16;;;;;;;18.57;14.87;;;24.70;59.60;;;;;;5054880;28;20442;-89
2021/10/10 10:04:48;;;;;;;17.60;15.83;;;24.50;56.10;;;;;;5054629;28;20445;-88
2021/10/10 10:07:16;;;;;;;17.83;16.33;;;23.80;56.50;;;;;;5055829;28;20597;-88
2021/10/10 10:09:45;;;;;;;16.83;15.33;;;25.30;56.50;;;;;;5056481;28;20474;-87
2021/10/10 10:12:11;;;;;;;16.97;15.37;;;26.20;54.40;;;;;;5054696;28;20448;-88
2021/10/10 10:14:40;;;;;;;19.90;15.50;;;27.20;51.10;;;;;;5067754;22;20437;-89
2021/10/10 10:17:07;;;;;;;17.33;15.73;;;27.10;50.90;;;;;;5020088;28;20434;-89
2021/10/10 10:19:35;;;;;;;17.23;15.50;;;27.20;49.60;;;;;;5016082;28;20445;-89
2021/10/10 10:22:03;;;;;;;17.90;16.10;;;28.60;49.30;;;;;;5018379;28;20946;-89
2021/10/10 10:24:35;;;;;;;19.47;17.40;;;29.30;46.70;;;;;;5015938;28;20808;-90
2021/10/10 10:27:04;;;;;;;17.50;15.97;;;29.70;45.30;;;;;;5016039;28;20478;-89
2021/10/10 10:29:34;;;;;;;16.57;15.07;;;29.60;44.20;;;;;;5015162;28;20461;-90
2021/10/10 10:32:02;;;;;;;17.63;15.53;;;28.10;44.60;;;;;;5015846;28;20437;-89
2021/10/10 10:34:31;;;;;;;17.77;15.70;;;27.60;45.60;;;;;;5034563;28;20430;-89
2021/10/10 10:37:01;;;;;;;16.70;15.17;;;28.10;46.40;;;;;;5026533;28;20445;-88
2021/10/10 10:39:42;;;;;;;16.57;15.07;;;28.10;44.30;;;;;;5032151;28;20438;-89
2021/10/10 10:42:10;;;;;;;17.87;16.10;;;26.50;45.80;;;;;;5016613;28;20959;-89
2021/10/10 10:44:41;;;;;;;16.37;14.67;;;26.50;47.40;;;;;;5026023;28;20442;-89
2021/10/10 10:47:12;;;;;;;15.87;14.10;;;27.50;45.50;;;;;;5016964;28;20563;-89
2021/10/10 10:50:00;;;;;;;15.83;14.43;;;28.00;44.60;;;;;;5016582;28;20459;-89
2021/10/10 10:52:33;;;;;;;18.07;16.37;;;29.80;41.90;;;;;;5013421;28;20456;-90
2021/10/10 10:55:15;;;;;;;14.87;13.47;;;30.50;42.00;;;;;;5015903;28;20892;-90
2021/10/10 10:57:45;;;;;;;13.23;11.93;;;30.70;38.90;;;;;;5015530;28;20480;-90
2021/10/10 11:00:14;;;;;;;14.37;12.80;;;29.90;39.40;;;;;;5015808;28;20467;-89
2021/10/10 11:03:03;;;;;;;16.60;15.20;;;30.00;39.50;;;;;;5022789;28;20456;-89
2021/10/10 11:05:35;;;;;;;15.30;13.80;;;29.40;40.30;;;;;;5035193;28;20451;-90
2021/10/10 11:08:03;;;;;;;16.83;15.23;;;28.90;41.90;;;;;;5023554;28;20435;-90
2021/10/10 11:10:31;;;;;;;15.20;13.80;;;29.60;40.50;;;;;;5016529;28;20456;-90
2021/10/10 11:12:58;;;;;;;12.40;11.27;;;30.20;39.70;;;;;;5016732;28;20939;-90
2021/10/10 11:15:25;;;;;;;14.23;13.00;;;29.80;38.00;;;;;;5025021;28;20480;-89
2021/10/10 11:17:56;;;;;;;17.17;15.57;;;28.80;41.00;;;;;;5023766;28;20488;-89
2021/10/10 11:20:25;;;;;;;14.93;13.60;;;28.10;40.80;;;;;;5021462;28;20560;-90
2021/10/10 11:22:51;;;;;;;14.30;13.00;;;28.60;40.60;;;;;;5017543;28;20723;-90
2021/10/10 11:25:18;;;;;;;11.73;10.63;;;29.00;38.60;;;;;;5016777;28;20512;-90
2021/10/10 11:27:49;;;;;;;11.80;10.60;;;28.80;38.10;;;;;;5016689;28;20456;-90
2021/10/10 11:30:16;;;;;;;11.27;10.23;;;29.60;37.70;;;;;;5017522;28;20514;-89
2021/10/10 11:32:53;;;;;;;11.00;9.70;;;29.00;36.80;;;;;;5020753;28;20987;-89
2021/10/10 11:35:25;;;;;;;11.03;9.97;;;28.50;36.90;;;;;;5019638;28;20485;-89
2021/10/10 11:38:06;;;;;;;11.00;9.90;;;28.60;37.40;;;;;;5017266;28;20481;-89
2021/10/10 11:40:33;;;;;;;14.33;11.30;;;28.10;38.30;;;;;;5017824;28;20528;-89
2021/10/10 11:43:00;;;;;;;12.77;10.43;;;27.80;38.60;;;;;;5018989;28;20434;-90
2021/10/10 11:45:28;;;;;;;12.03;10.60;;;27.60;38.50;;;;;;5021483;28;20454;-89
2021/10/10 11:47:57;;;;;;;10.73;9.73;;;27.50;38.20;;;;;;5016551;28;20458;-89
2021/10/10 11:50:25;;;;;;;9.57;8.80;;;27.80;36.90;;;;;;5015774;28;20879;-90
2021/10/10 11:52:58;;;;;;;11.03;10.03;;;28.10;37.60;;;;;;5016355;28;20447;-89
2021/10/10 11:55:32;;;;;;;12.60;11.47;;;28.70;36.80;;;;;;5021212;28;20528;-90
2021/10/10 11:58:01;;;;;;;10.20;9.30;;;27.90;37.80;;;;;;5025808;28;20478;-90
2021/10/10 12:00:30;;;;;;;12.77;9.73;;;28.40;39.00;;;;;;5035915;28;20470;-91
2021/10/10 12:03:05;;;;;;;12.27;10.93;;;28.50;37.10;;;;;;5020803;28;20473;-90
2021/10/10 12:05:41;;;;;;;11.20;10.20;;;28.20;37.30;;;;;;5034945;28;20488;-90
2021/10/10 12:08:18;;;;;;;12.60;11.37;;;29.50;37.10;;;;;;5024272;28;20468;-90
2021/10/10 12:10:48;;;;;;;10.67;9.77;;;29.60;36.10;;;;;;5015107;28;20454;-89
2021/10/10 12:13:15;;;;;;;10.50;9.17;;;28.10;37.20;;;;;;5016456;28;20448;-89
2021/10/10 12:15:42;;;;;;;9.40;8.50;;;27.50;37.00;;;;;;5015269;28;20528;-89
2021/10/10 12:18:13;;;;;;;11.80;9.03;;;28.20;35.70;;;;;;5015602;28;20482;-90
2021/10/10 12:20:42;;;;;;;12.90;10.07;;;29.00;35.60;;;;;;5015462;28;20501;-90
2021/10/10 12:23:12;;;;;;;10.00;8.87;;;28.80;36.20;;;;;;5015514;28;20702;-90
2021/10/10 12:25:42;;;;;;;9.97;8.97;;;29.30;35.00;;;;;;5016251;28;20549;-90
2021/10/10 12:28:11;;;;;;;11.93;10.40;;;28.50;34.90;;;;;;5015212;28;20454;-91
2021/10/10 12:30:40;;;;;;;11.33;10.23;;;26.60;37.70;;;;;;5014852;28;20450;-89
2021/10/10 12:33:27;;;;;;;13.33;9.77;;;25.30;39.90;;;;;;5017548;28;20797;-89
2021/10/10 12:36:00;;;;;;;12.20;11.00;;;25.00;40.70;;;;;;5019363;28;20446;-90
2021/10/10 12:38:35;;;;;;;12.70;11.60;;;23.10;43.60;;;;;;5035190;28;20499;-89
2021/10/10 12:41:22;;;;;;;11.63;10.43;;;22.00;45.20;;;;;;5022300;28;20433;-90
2021/10/10 12:43:51;;;;;;;10.90;9.30;;;21.40;46.40;;;;;;5025228;28;20450;-88
2021/10/10 12:46:20;;;;;;;10.53;9.43;;;20.80;46.50;;;;;;5015338;28;20473;-88